sensor_id;sensor_type;location;lat;lon;timestamp;P1;durP1;ratioP1;P2;durP2;ratioP2
3299;SDS011;1662;49.310;8.134;2023-06-24T00:02:05;7.63;;;7.23;;
3299;SDS011;1662;49.310;8.134;2023-06-24T00:04:31;7.70;;;7.37;;
3299;SDS011;1662;49.310;8.134;2023-06-24T00:06:56;7.90;;;7.40;;
3299;SDS011;1662;49.310;8.134;2023-06-24T00:09:25;7.70;;;7.20;;
3299;SDS011;1662;49.310;8.134;2023-06-24T00:11:52;7.87;;;7.33;;
3299;SDS011;1662;49.310;8.134;2023-06-24T00:14:19;9.50;;;8.60;;
3299;SDS011;1662;49.310;8.134;2023-06-24T00:16:46;8.17;;;7.63;;
3299;SDS011;1662;49.310;8.134;2023-06-24T00:19:19;7.20;;;6.90;;
3299;SDS011;1662;49.310;8.134;2023-06-24T00:21:46;8.20;;;7.63;;
3299;SDS011;1662;49.310;8.134;2023-06-24T00:24:16;8.30;;;7.80;;
3299;SDS011;1662;49.310;8.134;2023-06-24T00:26:50;7.17;;;6.73;;
3299;SDS011;1662;49.310;8.134;2023-06-24T00:29:18;8.27;;;7.67;;
3299;SDS011;1662;49.310;8.134;2023-06-24T00:31:47;7.63;;;7.27;;
3299;SDS011;1662;49.310;8.134;2023-06-24T00:34:15;8.40;;;7.80;;
3299;SDS011;1662;49.310;8.134;2023-06-24T00:36:44;7.70;;;7.20;;
3299;SDS011;1662;49.310;8.134;2023-06-24T00:39:11;8.30;;;7.80;;
3299;SDS011;1662;49.310;8.134;2023-06-24T00:41:37;8.00;;;7.50;;
3299;SDS011;1662;49.310;8.134;2023-06-24T00:44:03;8.23;;;7.70;;
3299;SDS011;1662;49.310;8.134;2023-06-24T00:46:29;7.87;;;7.47;;
3299;SDS011;1662;49.310;8.134;2023-06-24T00:48:58;7.33;;;6.87;;
3299;SDS011;1662;49.310;8.134;2023-06-24T00:51:24;7.80;;;7.30;;
3299;SDS011;1662;49.310;8.134;2023-06-24T00:53:52;8.37;;;7.87;;
3299;SDS011;1662;49.310;8.134;2023-06-24T00:56:18;8.30;;;7.80;;
3299;SDS011;1662;49.310;8.134;2023-06-24T00:58:47;7.87;;;7.27;;
3299;SDS011;1662;49.310;8.134;2023-06-24T01:01:13;7.40;;;7.00;;
3299;SDS011;1662;49.310;8.134;2023-06-24T01:03:42;7.23;;;6.83;;
3299;SDS011;1662;49.310;8.134;2023-06-24T01:06:08;7.77;;;7.27;;
3299;SDS011;1662;49.310;8.134;2023-06-24T01:08:34;8.10;;;7.60;;
3299;SDS011;1662;49.310;8.134;2023-06-24T01:11:00;7.53;;;7.13;;
3299;SDS011;1662;49.310;8.134;2023-06-24T01:13:26;7.70;;;7.30;;
3299;SDS011;1662;49.310;8.134;2023-06-24T01:15:52;7.50;;;7.00;;
3299;SDS011;1662;49.310;8.134;2023-06-24T01:18:24;8.07;;;7.57;;
3299;SDS011;1662;49.310;8.134;2023-06-24T01:21:03;7.30;;;6.90;;
3299;SDS011;1662;49.310;8.134;2023-06-24T01:29:20;6.93;;;6.53;;
3299;SDS011;1662;49.310;8.134;2023-06-24T01:31:59;8.07;;;7.57;;
3299;SDS011;1662;49.310;8.134;2023-06-24T01:34:43;7.40;;;7.00;;
3299;SDS011;1662;49.310;8.134;2023-06-24T01:37:17;7.70;;;7.20;;
3299;SDS011;1662;49.310;8.134;2023-06-24T01:39:54;7.33;;;7.03;;
3299;SDS011;1662;49.310;8.134;2023-06-24T01:42:25;7.00;;;6.63;;
3299;SDS011;1662;49.310;8.134;2023-06-24T01:44:54;7.70;;;7.20;;
3299;SDS011;1662;49.310;8.134;2023-06-24T01:47:22;7.20;;;6.80;;
3299;SDS011;1662;49.310;8.134;2023-06-24T01:49:52;8.00;;;7.60;;
3299;SDS011;1662;49.310;8.134;2023-06-24T01:52:20;7.80;;;7.30;;
3299;SDS011;1662;49.310;8.134;2023-06-24T01:54:49;6.83;;;6.53;;
3299;SDS011;1662;49.310;8.134;2023-06-24T01:57:15;7.70;;;7.30;;
3299;SDS011;1662;49.310;8.134;2023-06-24T01:59:43;7.10;;;6.70;;
3299;SDS011;1662;49.310;8.134;2023-06-24T02:02:10;7.83;;;7.27;;
3299;SDS011;1662;49.310;8.134;2023-06-24T02:04:37;7.40;;;7.00;;
3299;SDS011;1662;49.310;8.134;2023-06-24T02:07:04;7.83;;;7.10;;
3299;SDS011;1662;49.310;8.134;2023-06-24T02:09:31;7.60;;;7.10;;
3299;SDS011;1662;49.310;8.134;2023-06-24T02:11:58;7.63;;;7.13;;
3299;SDS011;1662;49.310;8.134;2023-06-24T02:14:26;8.00;;;7.30;;
3299;SDS011;1662;49.310;8.134;2023-06-24T02:16:56;7.67;;;7.07;;
3299;SDS011;1662;49.310;8.134;2023-06-24T02:19:25;7.60;;;7.10;;
3299;SDS011;1662;49.310;8.134;2023-06-24T02:21:54;8.20;;;7.50;;
3299;SDS011;1662;49.310;8.134;2023-06-24T02:24:21;8.20;;;7.57;;
3299;SDS011;1662;49.310;8.134;2023-06-24T02:26:47;8.03;;;6.80;;
3299;SDS011;1662;49.310;8.134;2023-06-24T02:29:14;8.07;;;7.53;;
3299;SDS011;1662;49.310;8.134;2023-06-24T02:31:40;7.90;;;7.30;;
3299;SDS011;1662;49.310;8.134;2023-06-24T02:34:06;7.50;;;7.00;;
3299;SDS011;1662;49.310;8.134;2023-06-24T02:36:32;8.10;;;7.60;;
3299;SDS011;1662;49.310;8.134;2023-06-24T02:38:57;8.87;;;8.17;;
3299;SDS011;1662;49.310;8.134;2023-06-24T02:41:23;7.50;;;7.07;;
3299;SDS011;1662;49.310;8.134;2023-06-24T02:43:48;7.50;;;7.00;;
3299;SDS011;1662;49.310;8.134;2023-06-24T02:46:14;7.40;;;7.00;;
3299;SDS011;1662;49.310;8.134;2023-06-24T02:48:40;8.33;;;6.20;;
3299;SDS011;1662;49.310;8.134;2023-06-24T02:51:07;6.97;;;6.37;;
3299;SDS011;1662;49.310;8.134;2023-06-24T02:53:35;7.93;;;7.43;;
3299;SDS011;1662;49.310;8.134;2023-06-24T02:56:03;7.20;;;6.73;;
3299;SDS011;1662;49.310;8.134;2023-06-24T02:58:30;7.63;;;6.93;;
3299;SDS011;1662;49.310;8.134;2023-06-24T03:00:58;6.47;;;6.17;;
3299;SDS011;1662;49.310;8.134;2023-06-24T03:03:25;7.40;;;6.90;;
3299;SDS011;1662;49.310;8.134;2023-06-24T03:05:53;7.00;;;6.60;;
3299;SDS011;1662;49.310;8.134;2023-06-24T03:08:21;7.60;;;7.10;;
3299;SDS011;1662;49.310;8.134;2023-06-24T03:10:49;7.20;;;6.80;;
3299;SDS011;1662;49.310;8.134;2023-06-24T03:13:24;7.23;;;6.63;;
3299;SDS011;1662;49.310;8.134;2023-06-24T03:15:50;7.40;;;6.80;;
3299;SDS011;1662;49.310;8.134;2023-06-24T03:18:16;7.20;;;6.80;;
3299;SDS011;1662;49.310;8.134;2023-06-24T03:20:42;6.43;;;6.03;;
3299;SDS011;1662;49.310;8.134;2023-06-24T03:23:08;8.20;;;7.60;;
3299;SDS011;1662;49.310;8.134;2023-06-24T03:25:34;7.60;;;6.87;;
3299;SDS011;1662;49.310;8.134;2023-06-24T03:28:00;7.90;;;7.30;;
3299;SDS011;1662;49.310;8.134;2023-06-24T03:30:28;7.33;;;6.80;;
3299;SDS011;1662;49.310;8.134;2023-06-24T03:32:57;8.10;;;7.50;;
3299;SDS011;1662;49.310;8.134;2023-06-24T03:35:24;7.03;;;6.63;;
3299;SDS011;1662;49.310;8.134;2023-06-24T03:37:50;8.00;;;7.40;;
3299;SDS011;1662;49.310;8.134;2023-06-24T03:40:16;8.00;;;7.40;;
3299;SDS011;1662;49.310;8.134;2023-06-24T03:42:42;7.93;;;7.17;;
3299;SDS011;1662;49.310;8.134;2023-06-24T03:45:07;7.70;;;7.10;;
3299;SDS011;1662;49.310;8.134;2023-06-24T03:47:33;7.17;;;6.67;;
3299;SDS011;1662;49.310;8.134;2023-06-24T03:49:59;6.53;;;6.10;;
3299;SDS011;1662;49.310;8.134;2023-06-24T03:52:25;7.30;;;6.80;;
3299;SDS011;1662;49.310;8.134;2023-06-24T03:54:50;7.17;;;6.57;;
3299;SDS011;1662;49.310;8.134;2023-06-24T03:57:16;7.27;;;6.70;;
3299;SDS011;1662;49.310;8.134;2023-06-24T03:59:43;6.83;;;6.37;;
3299;SDS011;1662;49.310;8.134;2023-06-24T04:02:08;7.40;;;6.80;;
3299;SDS011;1662;49.310;8.134;2023-06-24T04:04:37;7.03;;;6.40;;
3299;SDS011;1662;49.310;8.134;2023-06-24T04:07:02;7.03;;;6.53;;
3299;SDS011;1662;49.310;8.134;2023-06-24T04:09:32;7.33;;;6.73;;
3299;SDS011;1662;49.310;8.134;2023-06-24T04:11:59;8.77;;;6.57;;
3299;SDS011;1662;49.310;8.134;2023-06-24T04:14:25;7.37;;;6.87;;
3299;SDS011;1662;49.310;8.134;2023-06-24T04:16:53;7.43;;;6.93;;
3299;SDS011;1662;49.310;8.134;2023-06-24T04:19:19;7.20;;;6.60;;
3299;SDS011;1662;49.310;8.134;2023-06-24T04:21:44;7.60;;;7.00;;
3299;SDS011;1662;49.310;8.134;2023-06-24T04:24:10;8.83;;;6.57;;
3299;SDS011;1662;49.310;8.134;2023-06-24T04:26:36;7.53;;;6.93;;
3299;SDS011;1662;49.310;8.134;2023-06-24T04:29:01;6.13;;;5.63;;
3299;SDS011;1662;49.310;8.134;2023-06-24T04:31:27;7.47;;;6.97;;
3299;SDS011;1662;49.310;8.134;2023-06-24T04:33:53;7.63;;;7.13;;
3299;SDS011;1662;49.310;8.134;2023-06-24T04:36:19;7.67;;;6.97;;
3299;SDS011;1662;49.310;8.134;2023-06-24T04:38:50;7.90;;;7.30;;
3299;SDS011;1662;49.310;8.134;2023-06-24T04:41:16;8.47;;;7.77;;
3299;SDS011;1662;49.310;8.134;2023-06-24T04:43:43;7.10;;;6.60;;
3299;SDS011;1662;49.310;8.134;2023-06-24T04:46:09;7.50;;;6.90;;
3299;SDS011;1662;49.310;8.134;2023-06-24T04:48:34;8.13;;;7.53;;
3299;SDS011;1662;49.310;8.134;2023-06-24T04:51:00;7.17;;;6.67;;
3299;SDS011;1662;49.310;8.134;2023-06-24T04:53:25;6.43;;;6.03;;
3299;SDS011;1662;49.310;8.134;2023-06-24T04:55:54;6.80;;;6.40;;
3299;SDS011;1662;49.310;8.134;2023-06-24T04:58:20;7.73;;;7.17;;
3299;SDS011;1662;49.310;8.134;2023-06-24T05:00:45;7.40;;;6.47;;
3299;SDS011;1662;49.310;8.134;2023-06-24T05:03:11;7.63;;;7.03;;
3299;SDS011;1662;49.310;8.134;2023-06-24T05:05:38;7.60;;;6.90;;
3299;SDS011;1662;49.310;8.134;2023-06-24T05:08:04;8.40;;;7.00;;
3299;SDS011;1662;49.310;8.134;2023-06-24T05:10:32;7.73;;;7.10;;
3299;SDS011;1662;49.310;8.134;2023-06-24T05:12:58;7.07;;;6.57;;
3299;SDS011;1662;49.310;8.134;2023-06-24T05:15:23;7.60;;;6.97;;
3299;SDS011;1662;49.310;8.134;2023-06-24T05:17:49;7.43;;;6.90;;
3299;SDS011;1662;49.310;8.134;2023-06-24T05:20:14;7.70;;;7.10;;
3299;SDS011;1662;49.310;8.134;2023-06-24T05:22:42;7.17;;;6.63;;
3299;SDS011;1662;49.310;8.134;2023-06-24T05:25:08;8.10;;;7.50;;
3299;SDS011;1662;49.310;8.134;2023-06-24T05:27:34;8.40;;;7.80;;
3299;SDS011;1662;49.310;8.134;2023-06-24T05:29:59;7.40;;;6.80;;
3299;SDS011;1662;49.310;8.134;2023-06-24T05:32:25;8.37;;;7.67;;
3299;SDS011;1662;49.310;8.134;2023-06-24T05:34:51;8.80;;;8.00;;
3299;SDS011;1662;49.310;8.134;2023-06-24T05:37:18;8.63;;;7.90;;
3299;SDS011;1662;49.310;8.134;2023-06-24T05:39:44;8.77;;;8.10;;
3299;SDS011;1662;49.310;8.134;2023-06-24T05:42:10;8.30;;;7.70;;
3299;SDS011;1662;49.310;8.134;2023-06-24T05:44:35;9.90;;;9.00;;
3299;SDS011;1662;49.310;8.134;2023-06-24T05:47:01;10.00;;;8.20;;
3299;SDS011;1662;49.310;8.134;2023-06-24T05:49:26;9.50;;;7.70;;
3299;SDS011;1662;49.310;8.134;2023-06-24T05:51:52;7.40;;;6.80;;
3299;SDS011;1662;49.310;8.134;2023-06-24T05:54:18;8.57;;;7.87;;
3299;SDS011;1662;49.310;8.134;2023-06-24T05:56:43;9.53;;;8.37;;
3299;SDS011;1662;49.310;8.134;2023-06-24T05:59:09;8.40;;;7.70;;
3299;SDS011;1662;49.310;8.134;2023-06-24T06:01:34;8.90;;;8.03;;
3299;SDS011;1662;49.310;8.134;2023-06-24T06:04:00;8.20;;;7.60;;
3299;SDS011;1662;49.310;8.134;2023-06-24T06:06:25;8.87;;;8.20;;
3299;SDS011;1662;49.310;8.134;2023-06-24T06:08:51;9.00;;;8.30;;
3299;SDS011;1662;49.310;8.134;2023-06-24T06:11:17;9.50;;;8.67;;
3299;SDS011;1662;49.310;8.134;2023-06-24T06:13:42;7.80;;;7.17;;
3299;SDS011;1662;49.310;8.134;2023-06-24T06:16:08;7.87;;;7.20;;
3299;SDS011;1662;49.310;8.134;2023-06-24T06:18:33;9.10;;;8.30;;
3299;SDS011;1662;49.310;8.134;2023-06-24T06:20:59;8.43;;;7.53;;
3299;SDS011;1662;49.310;8.134;2023-06-24T06:23:25;7.73;;;7.17;;
3299;SDS011;1662;49.310;8.134;2023-06-24T06:25:52;8.40;;;7.77;;
3299;SDS011;1662;49.310;8.134;2023-06-24T06:28:17;8.00;;;7.40;;
3299;SDS011;1662;49.310;8.134;2023-06-24T06:30:43;9.83;;;8.93;;
3299;SDS011;1662;49.310;8.134;2023-06-24T06:33:09;9.80;;;8.90;;
3299;SDS011;1662;49.310;8.134;2023-06-24T06:35:34;7.87;;;7.27;;
3299;SDS011;1662;49.310;8.134;2023-06-24T06:38:00;8.00;;;7.33;;
3299;SDS011;1662;49.310;8.134;2023-06-24T06:40:25;8.10;;;7.20;;
3299;SDS011;1662;49.310;8.134;2023-06-24T06:42:53;7.07;;;6.47;;
3299;SDS011;1662;49.310;8.134;2023-06-24T06:45:19;8.07;;;7.43;;
3299;SDS011;1662;49.310;8.134;2023-06-24T06:47:44;7.47;;;6.87;;
3299;SDS011;1662;49.310;8.134;2023-06-24T06:50:10;8.90;;;8.07;;
3299;SDS011;1662;49.310;8.134;2023-06-24T06:52:37;9.70;;;8.27;;
3299;SDS011;1662;49.310;8.134;2023-06-24T06:55:03;7.53;;;6.93;;
3299;SDS011;1662;49.310;8.134;2023-06-24T06:57:29;6.77;;;6.27;;
3299;SDS011;1662;49.310;8.134;2023-06-24T06:59:56;7.77;;;7.17;;
3299;SDS011;1662;49.310;8.134;2023-06-24T07:02:21;6.93;;;6.53;;
3299;SDS011;1662;49.310;8.134;2023-06-24T07:04:47;7.27;;;6.77;;
3299;SDS011;1662;49.310;8.134;2023-06-24T07:07:13;7.53;;;6.83;;
3299;SDS011;1662;49.310;8.134;2023-06-24T07:09:39;6.50;;;6.00;;
3299;SDS011;1662;49.310;8.134;2023-06-24T07:12:05;8.30;;;7.60;;
3299;SDS011;1662;49.310;8.134;2023-06-24T07:14:31;6.50;;;5.87;;
3299;SDS011;1662;49.310;8.134;2023-06-24T07:16:57;7.00;;;6.50;;
3299;SDS011;1662;49.310;8.134;2023-06-24T07:19:23;7.20;;;6.70;;
3299;SDS011;1662;49.310;8.134;2023-06-24T07:21:48;9.70;;;8.50;;
3299;SDS011;1662;49.310;8.134;2023-06-24T07:24:14;7.67;;;7.13;;
3299;SDS011;1662;49.310;8.134;2023-06-24T07:26:42;6.70;;;6.30;;
3299;SDS011;1662;49.310;8.134;2023-06-24T07:29:08;7.47;;;6.87;;
3299;SDS011;1662;49.310;8.134;2023-06-24T07:31:36;7.33;;;6.63;;
3299;SDS011;1662;49.310;8.134;2023-06-24T07:34:02;7.07;;;6.47;;
3299;SDS011;1662;49.310;8.134;2023-06-24T07:36:28;7.13;;;6.63;;
3299;SDS011;1662;49.310;8.134;2023-06-24T07:38:53;6.50;;;6.10;;
3299;SDS011;1662;49.310;8.134;2023-06-24T07:41:19;7.83;;;7.13;;
3299;SDS011;1662;49.310;8.134;2023-06-24T07:43:44;6.80;;;6.40;;
3299;SDS011;1662;49.310;8.134;2023-06-24T07:46:10;6.20;;;5.70;;
3299;SDS011;1662;49.310;8.134;2023-06-24T07:48:36;7.60;;;7.00;;
3299;SDS011;1662;49.310;8.134;2023-06-24T07:51:01;7.47;;;6.87;;
3299;SDS011;1662;49.310;8.134;2023-06-24T07:53:27;6.97;;;6.17;;
3299;SDS011;1662;49.310;8.134;2023-06-24T07:55:53;7.13;;;6.63;;
3299;SDS011;1662;49.310;8.134;2023-06-24T07:58:18;7.37;;;6.73;;
3299;SDS011;1662;49.310;8.134;2023-06-24T08:00:46;8.07;;;7.27;;
3299;SDS011;1662;49.310;8.134;2023-06-24T08:03:12;7.13;;;6.63;;
3299;SDS011;1662;49.310;8.134;2023-06-24T08:05:38;7.97;;;7.37;;
3299;SDS011;1662;49.310;8.134;2023-06-24T08:08:04;7.50;;;6.83;;
3299;SDS011;1662;49.310;8.134;2023-06-24T08:10:31;7.07;;;6.60;;
3299;SDS011;1662;49.310;8.134;2023-06-24T08:12:57;7.17;;;6.63;;
3299;SDS011;1662;49.310;8.134;2023-06-24T08:15:23;7.20;;;6.53;;
3299;SDS011;1662;49.310;8.134;2023-06-24T08:17:51;6.27;;;5.87;;
3299;SDS011;1662;49.310;8.134;2023-06-24T08:20:18;5.70;;;5.37;;
3299;SDS011;1662;49.310;8.134;2023-06-24T08:22:45;5.97;;;5.57;;
3299;SDS011;1662;49.310;8.134;2023-06-24T08:25:10;6.67;;;6.17;;
3299;SDS011;1662;49.310;8.134;2023-06-24T08:27:36;6.83;;;6.40;;
3299;SDS011;1662;49.310;8.134;2023-06-24T08:30:03;6.80;;;6.30;;
3299;SDS011;1662;49.310;8.134;2023-06-24T08:32:32;6.60;;;6.20;;
3299;SDS011;1662;49.310;8.134;2023-06-24T08:35:00;7.00;;;6.53;;
3299;SDS011;1662;49.310;8.134;2023-06-24T08:37:26;7.07;;;6.67;;
3299;SDS011;1662;49.310;8.134;2023-06-24T08:39:52;7.10;;;6.70;;
3299;SDS011;1662;49.310;8.134;2023-06-24T08:42:18;7.63;;;7.13;;
3299;SDS011;1662;49.310;8.134;2023-06-24T08:44:44;7.50;;;6.83;;
3299;SDS011;1662;49.310;8.134;2023-06-24T08:47:09;7.17;;;6.77;;
3299;SDS011;1662;49.310;8.134;2023-06-24T08:49:38;6.43;;;6.03;;
3299;SDS011;1662;49.310;8.134;2023-06-24T08:52:12;7.23;;;6.70;;
3299;SDS011;1662;49.310;8.134;2023-06-24T08:54:40;7.07;;;6.67;;
3299;SDS011;1662;49.310;8.134;2023-06-24T08:57:09;6.93;;;6.53;;
3299;SDS011;1662;49.310;8.134;2023-06-24T08:59:41;6.83;;;6.43;;
3299;SDS011;1662;49.310;8.134;2023-06-24T09:02:07;7.40;;;6.90;;
3299;SDS011;1662;49.310;8.134;2023-06-24T09:04:34;6.97;;;6.57;;
3299;SDS011;1662;49.310;8.134;2023-06-24T09:07:00;7.50;;;7.00;;
3299;SDS011;1662;49.310;8.134;2023-06-24T09:09:25;7.80;;;7.27;;
3299;SDS011;1662;49.310;8.134;2023-06-24T09:11:56;6.80;;;6.40;;
3299;SDS011;1662;49.310;8.134;2023-06-24T09:14:27;6.60;;;6.30;;
3299;SDS011;1662;49.310;8.134;2023-06-24T09:16:58;7.50;;;7.00;;
3299;SDS011;1662;49.310;8.134;2023-06-24T09:19:34;7.97;;;7.40;;
3299;SDS011;1662;49.310;8.134;2023-06-24T09:22:03;6.60;;;6.30;;
3299;SDS011;1662;49.310;8.134;2023-06-24T09:24:30;8.80;;;8.00;;
3299;SDS011;1662;49.310;8.134;2023-06-24T09:26:56;7.63;;;7.23;;
3299;SDS011;1662;49.310;8.134;2023-06-24T09:29:28;7.90;;;7.50;;
3299;SDS011;1662;49.310;8.134;2023-06-24T09:31:58;7.50;;;7.10;;
3299;SDS011;1662;49.310;8.134;2023-06-24T09:34:27;8.00;;;7.60;;
3299;SDS011;1662;49.310;8.134;2023-06-24T09:36:54;8.33;;;7.93;;
3299;SDS011;1662;49.310;8.134;2023-06-24T09:39:20;8.30;;;7.90;;
3299;SDS011;1662;49.310;8.134;2023-06-24T09:41:50;8.20;;;7.60;;
3299;SDS011;1662;49.310;8.134;2023-06-24T09:44:16;7.57;;;7.07;;
3299;SDS011;1662;49.310;8.134;2023-06-24T09:46:45;7.83;;;7.40;;
3299;SDS011;1662;49.310;8.134;2023-06-24T09:49:11;7.53;;;7.10;;
3299;SDS011;1662;49.310;8.134;2023-06-24T09:51:38;6.70;;;6.40;;
3299;SDS011;1662;49.310;8.134;2023-06-24T09:54:05;7.13;;;6.83;;
3299;SDS011;1662;49.310;8.134;2023-06-24T09:56:52;7.03;;;6.63;;
3299;SDS011;1662;49.310;8.134;2023-06-24T09:59:19;8.00;;;7.60;;
3299;SDS011;1662;49.310;8.134;2023-06-24T10:01:46;7.60;;;7.20;;
3299;SDS011;1662;49.310;8.134;2023-06-24T10:04:15;7.40;;;7.00;;
3299;SDS011;1662;49.310;8.134;2023-06-24T10:06:42;8.73;;;8.20;;
3299;SDS011;1662;49.310;8.134;2023-06-24T10:09:07;8.67;;;8.17;;
3299;SDS011;1662;49.310;8.134;2023-06-24T10:11:36;8.23;;;7.40;;
3299;SDS011;1662;49.310;8.134;2023-06-24T10:14:01;8.90;;;8.50;;
3299;SDS011;1662;49.310;8.134;2023-06-24T10:16:27;8.43;;;8.00;;
3299;SDS011;1662;49.310;8.134;2023-06-24T10:18:59;9.10;;;8.60;;
3299;SDS011;1662;49.310;8.134;2023-06-24T10:21:43;9.33;;;8.73;;
3299;SDS011;1662;49.310;8.134;2023-06-24T10:24:11;8.70;;;8.30;;
3299;SDS011;1662;49.310;8.134;2023-06-24T10:26:37;10.37;;;9.77;;
3299;SDS011;1662;49.310;8.134;2023-06-24T10:44:50;9.40;;;8.80;;
3299;SDS011;1662;49.310;8.134;2023-06-24T10:47:17;9.90;;;9.40;;
3299;SDS011;1662;49.310;8.134;2023-06-24T10:49:43;9.20;;;8.70;;
3299;SDS011;1662;49.310;8.134;2023-06-24T10:52:11;9.10;;;8.70;;
3299;SDS011;1662;49.310;8.134;2023-06-24T10:54:38;9.53;;;9.13;;
3299;SDS011;1662;49.310;8.134;2023-06-24T10:57:05;9.00;;;8.60;;
3299;SDS011;1662;49.310;8.134;2023-06-24T10:59:34;8.97;;;8.57;;
3299;SDS011;1662;49.310;8.134;2023-06-24T11:02:00;9.47;;;9.00;;
3299;SDS011;1662;49.310;8.134;2023-06-24T11:04:28;8.80;;;8.40;;
3299;SDS011;1662;49.310;8.134;2023-06-24T11:07:01;8.90;;;8.40;;
3299;SDS011;1662;49.310;8.134;2023-06-24T11:09:27;9.10;;;8.70;;
3299;SDS011;1662;49.310;8.134;2023-06-24T11:11:53;9.10;;;8.60;;
3299;SDS011;1662;49.310;8.134;2023-06-24T11:14:21;10.00;;;9.30;;
3299;SDS011;1662;49.310;8.134;2023-06-24T11:16:47;9.57;;;9.17;;
3299;SDS011;1662;49.310;8.134;2023-06-24T11:19:13;9.50;;;9.00;;
3299;SDS011;1662;49.310;8.134;2023-06-24T11:21:38;8.97;;;8.57;;
3299;SDS011;1662;49.310;8.134;2023-06-24T11:24:04;9.43;;;9.03;;
3299;SDS011;1662;49.310;8.134;2023-06-24T11:26:30;8.70;;;8.30;;
3299;SDS011;1662;49.310;8.134;2023-06-24T11:28:57;9.93;;;9.33;;
3299;SDS011;1662;49.310;8.134;2023-06-24T11:31:25;9.63;;;9.23;;
3299;SDS011;1662;49.310;8.134;2023-06-24T11:33:51;9.97;;;9.47;;
3299;SDS011;1662;49.310;8.134;2023-06-24T11:36:22;9.73;;;9.20;;
3299;SDS011;1662;49.310;8.134;2023-06-24T11:38:48;8.23;;;7.83;;
3299;SDS011;1662;49.310;8.134;2023-06-24T11:41:14;8.40;;;8.10;;
3299;SDS011;1662;49.310;8.134;2023-06-24T11:43:44;9.10;;;8.70;;
3299;SDS011;1662;49.310;8.134;2023-06-24T11:46:10;9.50;;;9.10;;
3299;SDS011;1662;49.310;8.134;2023-06-24T11:48:45;8.90;;;8.50;;
3299;SDS011;1662;49.310;8.134;2023-06-24T11:51:13;9.10;;;8.53;;
3299;SDS011;1662;49.310;8.134;2023-06-24T11:53:43;9.40;;;8.90;;
3299;SDS011;1662;49.310;8.134;2023-06-24T11:56:10;8.90;;;8.50;;
3299;SDS011;1662;49.310;8.134;2023-06-24T11:58:37;9.60;;;8.83;;
3299;SDS011;1662;49.310;8.134;2023-06-24T12:01:03;10.07;;;9.20;;
3299;SDS011;1662;49.310;8.134;2023-06-24T12:03:32;9.70;;;9.10;;
3299;SDS011;1662;49.310;8.134;2023-06-24T12:05:58;9.80;;;9.40;;
3299;SDS011;1662;49.310;8.134;2023-06-24T12:08:24;8.93;;;8.47;;
3299;SDS011;1662;49.310;8.134;2023-06-24T12:10:51;9.67;;;9.20;;
3299;SDS011;1662;49.310;8.134;2023-06-24T12:13:17;10.30;;;9.67;;
3299;SDS011;1662;49.310;8.134;2023-06-24T12:15:43;10.40;;;10.00;;
3299;SDS011;1662;49.310;8.134;2023-06-24T12:18:09;10.70;;;9.87;;
3299;SDS011;1662;49.310;8.134;2023-06-24T12:20:36;10.00;;;9.50;;
3299;SDS011;1662;49.310;8.134;2023-06-24T12:23:02;10.23;;;9.23;;
3299;SDS011;1662;49.310;8.134;2023-06-24T12:25:31;9.20;;;8.80;;
3299;SDS011;1662;49.310;8.134;2023-06-24T12:27:57;9.30;;;8.90;;
3299;SDS011;1662;49.310;8.134;2023-06-24T12:30:24;10.57;;;9.93;;
3299;SDS011;1662;49.310;8.134;2023-06-24T12:32:50;9.00;;;8.70;;
3299;SDS011;1662;49.310;8.134;2023-06-24T12:35:16;10.37;;;9.67;;
3299;SDS011;1662;49.310;8.134;2023-06-24T12:37:42;9.73;;;9.23;;
3299;SDS011;1662;49.310;8.134;2023-06-24T12:40:10;10.27;;;9.50;;
3299;SDS011;1662;49.310;8.134;2023-06-24T12:42:36;10.10;;;9.70;;
3299;SDS011;1662;49.310;8.134;2023-06-24T12:45:02;10.37;;;9.90;;
3299;SDS011;1662;49.310;8.134;2023-06-24T12:47:28;9.93;;;9.50;;
3299;SDS011;1662;49.310;8.134;2023-06-24T12:49:55;10.20;;;9.70;;
3299;SDS011;1662;49.310;8.134;2023-06-24T12:52:21;9.23;;;8.93;;
3299;SDS011;1662;49.310;8.134;2023-06-24T12:54:47;9.70;;;9.10;;
3299;SDS011;1662;49.310;8.134;2023-06-24T12:57:13;9.70;;;9.30;;
3299;SDS011;1662;49.310;8.134;2023-06-24T12:59:42;10.40;;;9.90;;
3299;SDS011;1662;49.310;8.134;2023-06-24T13:02:08;10.60;;;10.10;;
3299;SDS011;1662;49.310;8.134;2023-06-24T13:04:33;10.57;;;10.07;;
3299;SDS011;1662;49.310;8.134;2023-06-24T13:06:59;10.73;;;10.23;;
3299;SDS011;1662;49.310;8.134;2023-06-24T13:09:25;10.27;;;9.87;;
3299;SDS011;1662;49.310;8.134;2023-06-24T13:11:53;11.20;;;10.53;;
3299;SDS011;1662;49.310;8.134;2023-06-24T13:14:19;10.83;;;10.30;;
3299;SDS011;1662;49.310;8.134;2023-06-24T13:16:44;10.67;;;10.10;;
3299;SDS011;1662;49.310;8.134;2023-06-24T13:19:10;11.10;;;10.60;;
3299;SDS011;1662;49.310;8.134;2023-06-24T13:21:36;11.27;;;10.77;;
3299;SDS011;1662;49.310;8.134;2023-06-24T13:24:01;11.10;;;10.27;;
3299;SDS011;1662;49.310;8.134;2023-06-24T13:26:27;10.50;;;10.00;;
3299;SDS011;1662;49.310;8.134;2023-06-24T13:28:53;11.13;;;10.47;;
3299;SDS011;1662;49.310;8.134;2023-06-24T13:31:22;10.73;;;10.23;;
3299;SDS011;1662;49.310;8.134;2023-06-24T13:33:49;10.07;;;9.67;;
3299;SDS011;1662;49.310;8.134;2023-06-24T13:36:34;10.20;;;9.70;;
3299;SDS011;1662;49.310;8.134;2023-06-24T13:39:10;9.90;;;9.60;;
3299;SDS011;1662;49.310;8.134;2023-06-24T13:41:41;9.90;;;9.60;;
3299;SDS011;1662;49.310;8.134;2023-06-24T13:44:08;10.13;;;9.73;;
3299;SDS011;1662;49.310;8.134;2023-06-24T13:46:34;11.07;;;10.60;;
3299;SDS011;1662;49.310;8.134;2023-06-24T13:49:01;10.97;;;10.47;;
3299;SDS011;1662;49.310;8.134;2023-06-24T13:51:27;10.27;;;9.87;;
3299;SDS011;1662;49.310;8.134;2023-06-24T13:53:54;10.50;;;10.00;;
3299;SDS011;1662;49.310;8.134;2023-06-24T13:56:20;9.87;;;9.50;;
3299;SDS011;1662;49.310;8.134;2023-06-24T13:58:47;9.87;;;9.43;;
3299;SDS011;1662;49.310;8.134;2023-06-24T14:01:13;10.00;;;9.60;;
3299;SDS011;1662;49.310;8.134;2023-06-24T14:03:39;10.30;;;9.90;;
3299;SDS011;1662;49.310;8.134;2023-06-24T14:06:05;10.37;;;9.97;;
3299;SDS011;1662;49.310;8.134;2023-06-24T14:08:31;11.43;;;10.63;;
3299;SDS011;1662;49.310;8.134;2023-06-24T14:10:57;9.97;;;9.53;;
3299;SDS011;1662;49.310;8.134;2023-06-24T14:13:24;10.60;;;10.10;;
3299;SDS011;1662;49.310;8.134;2023-06-24T14:15:51;10.53;;;10.13;;
3299;SDS011;1662;49.310;8.134;2023-06-24T14:18:17;10.43;;;10.03;;
3299;SDS011;1662;49.310;8.134;2023-06-24T14:20:43;10.50;;;10.10;;
3299;SDS011;1662;49.310;8.134;2023-06-24T14:23:08;10.67;;;10.27;;
3299;SDS011;1662;49.310;8.134;2023-06-24T14:25:34;10.67;;;10.17;;
3299;SDS011;1662;49.310;8.134;2023-06-24T14:28:01;10.47;;;10.00;;
3299;SDS011;1662;49.310;8.134;2023-06-24T14:30:27;10.77;;;10.27;;
3299;SDS011;1662;49.310;8.134;2023-06-24T14:32:52;10.90;;;10.50;;
3299;SDS011;1662;49.310;8.134;2023-06-24T14:35:20;10.73;;;10.27;;
3299;SDS011;1662;49.310;8.134;2023-06-24T14:37:48;11.00;;;10.30;;
3299;SDS011;1662;49.310;8.134;2023-06-24T14:40:14;10.07;;;9.67;;
3299;SDS011;1662;49.310;8.134;2023-06-24T14:42:39;10.33;;;9.93;;
3299;SDS011;1662;49.310;8.134;2023-06-24T14:45:05;11.17;;;10.67;;
3299;SDS011;1662;49.310;8.134;2023-06-24T14:47:31;11.27;;;10.83;;
3299;SDS011;1662;49.310;8.134;2023-06-24T14:49:57;11.97;;;11.40;;
3299;SDS011;1662;49.310;8.134;2023-06-24T14:52:22;11.37;;;10.87;;
3299;SDS011;1662;49.310;8.134;2023-06-24T14:54:48;11.17;;;10.57;;
3299;SDS011;1662;49.310;8.134;2023-06-24T14:57:14;10.70;;;10.30;;
3299;SDS011;1662;49.310;8.134;2023-06-24T14:59:42;10.33;;;9.90;;
3299;SDS011;1662;49.310;8.134;2023-06-24T15:02:08;11.30;;;10.80;;
3299;SDS011;1662;49.310;8.134;2023-06-24T15:04:35;11.13;;;10.63;;
3299;SDS011;1662;49.310;8.134;2023-06-24T15:07:01;11.37;;;10.67;;
3299;SDS011;1662;49.310;8.134;2023-06-24T15:09:26;11.10;;;10.60;;
3299;SDS011;1662;49.310;8.134;2023-06-24T15:11:55;10.90;;;10.50;;
3299;SDS011;1662;49.310;8.134;2023-06-24T15:14:20;10.63;;;10.10;;
3299;SDS011;1662;49.310;8.134;2023-06-24T15:16:46;11.17;;;10.67;;
3299;SDS011;1662;49.310;8.134;2023-06-24T15:19:12;10.97;;;10.53;;
3299;SDS011;1662;49.310;8.134;2023-06-24T15:21:37;12.00;;;11.33;;
3299;SDS011;1662;49.310;8.134;2023-06-24T15:24:03;11.90;;;11.20;;
3299;SDS011;1662;49.310;8.134;2023-06-24T15:26:29;12.00;;;11.40;;
3299;SDS011;1662;49.310;8.134;2023-06-24T15:28:57;11.50;;;10.90;;
3299;SDS011;1662;49.310;8.134;2023-06-24T15:31:25;10.70;;;10.10;;